Time;durP1;ratioP1;P1;durP2;ratioP2;P2;SDS_P1;SDS_P2;PMS_P1;PMS_P2;Temp;Humidity;BMP_temperature;BMP_pressure;BME280_temperature;BME280_humidity;BME280_pressure;Samples;Min_cycle;Max_cycle;Signal;HPM_P1;HPM_P2
2021/12/14 00:01:16;;;;;;;24.33;15.40;;;8.50;99.90;;;;;;5010918;28;20050;-31
2021/12/14 00:03:47;;;;;;;23.13;16.20;;;8.50;99.90;;;;;;4990560;28;20742;-31
2021/12/14 00:06:14;;;;;;;22.50;15.73;;;8.50;99.90;;;;;;5018641;28;20073;-31
2021/12/14 00:08:57;;;;;;;21.70;16.13;;;8.50;99.90;;;;;;5019026;28;20519;-30
2021/12/14 00:16:52;;;;;;;21.47;15.30;;;8.50;99.90;;;;;;4993047;28;20042;-31
2021/12/14 00:19:18;;;;;;;25.20;15.53;;;8.50;99.90;;;;;;5006641;28;20452;-31
2021/12/14 00:21:52;;;;;;;24.43;16.00;;;8.50;99.90;;;;;;5008183;28;20069;-31
2021/12/14 00:24:19;;;;;;;21.77;16.17;;;8.50;99.90;;;;;;5024037;28;20033;-30
2021/12/14 00:26:50;;;;;;;21.73;15.53;;;8.50;99.90;;;;;;5010245;28;20550;-31
2021/12/14 00:29:27;;;;;;;22.40;15.45;;;8.50;99.90;;;;;;5026523;28;20045;-30
2021/12/14 00:31:55;;;;;;;23.67;16.40;;;8.50;99.90;;;;;;5028501;28;20077;-31
2021/12/14 00:34:33;;;;;;;24.97;16.87;;;8.50;99.90;;;;;;5029167;28;20045;-31
2021/12/14 00:36:59;;;;;;;21.03;15.87;;;8.40;99.90;;;;;;5011433;28;20375;-31
2021/12/14 00:39:24;;;;;;;21.93;16.40;;;8.40;99.90;;;;;;5011400;28;20128;-30
2021/12/14 00:41:50;;;;;;;28.20;16.87;;;8.40;99.90;;;;;;5011285;28;20089;-30
2021/12/14 00:44:16;;;;;;;24.43;16.50;;;8.50;99.90;;;;;;5008997;28;20050;-31
2021/12/14 00:46:41;;;;;;;25.60;16.60;;;8.50;99.90;;;;;;4997576;28;20046;-31
2021/12/14 00:49:10;;;;;;;23.83;16.67;;;8.40;99.90;;;;;;5008713;28;20437;-30
2021/12/14 00:51:36;;;;;;;23.27;16.67;;;8.40;99.90;;;;;;5011276;28;20100;-30
2021/12/14 00:54:05;;;;;;;22.37;16.10;;;8.40;99.90;;;;;;5008810;28;20121;-30
2021/12/14 00:56:33;;;;;;;22.80;16.13;;;8.40;99.90;;;;;;4997151;28;20474;-31
2021/12/14 00:59:04;;;;;;;23.37;16.43;;;8.40;99.90;;;;;;5006737;28;20046;-31
2021/12/14 01:01:35;;;;;;;23.88;16.85;;;8.40;99.90;;;;;;5012158;28;20064;-31
2021/12/14 01:04:05;;;;;;;22.42;15.65;;;8.40;99.90;;;;;;5013651;28;20068;-31
2021/12/14 01:06:34;;;;;;;25.17;16.53;;;8.30;99.90;;;;;;5017145;28;20500;-31
2021/12/14 01:09:04;;;;;;;22.40;15.73;;;8.50;99.90;;;;;;5027755;28;20037;-30
2021/12/14 01:11:39;;;;;;;20.10;14.50;;;8.30;99.90;;;;;;5030799;28;20053;-30
2021/12/14 01:14:24;;;;;;;23.33;15.47;;;8.30;99.90;;;;;;5027601;28;20493;-30
2021/12/14 01:17:08;;;;;;;25.27;15.97;;;8.30;99.90;;;;;;4998485;28;20463;-30
2021/12/14 01:19:36;;;;;;;24.60;16.07;;;8.30;99.90;;;;;;5028947;28;20057;-30
2021/12/14 01:22:16;;;;;;;23.53;16.80;;;8.30;99.90;;;;;;5029748;28;20136;-30
2021/12/14 01:27:51;;;;;;;23.70;16.37;;;8.30;99.90;;;;;;5012289;28;20099;-32
2021/12/14 01:30:26;;;;;;;;;;;8.20;99.90;;;;;;5030284;28;20061;-30
2021/12/14 01:32:53;;;;;;;21.10;15.90;;;8.30;99.90;;;;;;5029280;28;20019;-30
2021/12/14 01:35:25;;;;;;;24.20;16.93;;;8.30;99.90;;;;;;5030170;28;20452;-30
2021/12/14 01:38:15;;;;;;;23.17;16.77;;;8.30;99.90;;;;;;5000214;28;20061;-30
2021/12/14 01:40:54;;;;;;;22.53;16.87;;;8.30;99.90;;;;;;5010200;28;20054;-31
2021/12/14 01:43:25;;;;;;;24.77;17.57;;;8.30;99.90;;;;;;5009083;28;20042;-31
2021/12/14 01:45:53;;;;;;;22.27;16.80;;;8.30;99.90;;;;;;5008292;28;20045;-30
2021/12/14 01:48:19;;;;;;;22.87;17.57;;;8.30;99.90;;;;;;4993968;28;20424;-30
2021/12/14 01:50:52;;;;;;;23.83;17.63;;;8.30;99.90;;;;;;5010392;28;20042;-30
2021/12/14 01:53:20;;;;;;;24.67;17.93;;;8.30;99.90;;;;;;5009569;28;20096;-30
2021/12/14 01:55:52;;;;;;;25.83;18.53;;;8.30;99.90;;;;;;5010050;28;20132;-30
2021/12/14 01:58:21;;;;;;;25.40;19.07;;;8.30;99.90;;;;;;4993288;28;20504;-31
2021/12/14 02:01:11;;;;;;;28.27;18.80;;;8.30;99.90;;;;;;5011024;28;20045;-30
2021/12/14 02:04:00;;;;;;;25.20;18.33;;;8.30;99.90;;;;;;5009530;28;20125;-30
2021/12/14 02:06:32;;;;;;;27.57;20.10;;;8.20;99.90;;;;;;5017596;28;20595;-30
2021/12/14 02:09:04;;;;;;;26.37;18.87;;;8.30;99.90;;;;;;5026822;28;20053;-30
2021/12/14 02:11:33;;;;;;;28.63;19.73;;;8.30;99.90;;;;;;5029442;28;20049;-30
2021/12/14 02:14:00;;;;;;;26.90;20.23;;;8.40;99.90;;;;;;5027439;28;20099;-30
2021/12/14 02:16:26;;;;;;;30.40;20.17;;;8.30;99.90;;;;;;4995816;28;20465;-30
2021/12/14 02:18:59;;;;;;;28.07;20.07;;;8.30;99.90;;;;;;5003626;28;20049;-31
2021/12/14 02:21:25;;;;;;;30.33;21.00;;;8.20;99.90;;;;;;5009245;28;20493;-30
2021/12/14 02:23:53;;;;;;;30.80;21.60;;;8.30;99.90;;;;;;5020603;28;20524;-31
2021/12/14 02:26:25;;;;;;;28.23;21.57;;;8.20;99.90;;;;;;5018123;28;20045;-30
2021/12/14 02:28:52;;;;;;;31.60;21.97;;;8.20;99.90;;;;;;5018314;28;20049;-30
2021/12/14 02:31:21;;;;;;;29.23;21.60;;;8.30;99.90;;;;;;5029425;28;20076;-30
2021/12/14 02:33:50;;;;;;;31.47;22.27;;;8.20;99.90;;;;;;5028132;28;20049;-30
2021/12/14 02:36:39;;;;;;;29.10;20.83;;;8.20;99.90;;;;;;5018173;28;20051;-31
2021/12/14 02:39:11;;;;;;;29.20;21.97;;;8.30;99.90;;;;;;5020365;28;20049;-30
2021/12/14 02:42:00;;;;;;;33.13;23.10;;;8.30;99.90;;;;;;5027701;28;20485;-31
2021/12/14 02:44:25;;;;;;;32.80;22.00;;;8.20;99.90;;;;;;5027868;28;20052;-31
2021/12/14 02:46:57;;;;;;;32.67;22.40;;;8.20;99.90;;;;;;5012970;28;20049;-30
2021/12/14 02:49:28;;;;;;;30.25;22.30;;;8.30;99.90;;;;;;5027708;28;20037;-31
2021/12/14 02:51:55;;;;;;;;;;;8.20;99.90;;;;;;5029172;28;20075;-31
2021/12/14 02:54:31;;;;;;;32.67;22.57;;;8.20;99.90;;;;;;5028055;28;19968;-30
2021/12/14 02:57:18;;;;;;;32.87;23.10;;;8.20;99.90;;;;;;5012476;28;20068;-30
2021/12/14 02:59:46;;;;;;;32.17;22.73;;;8.20;99.90;;;;;;5027232;28;20053;-31
2021/12/14 03:02:43;;;;;;;34.77;24.20;;;8.20;99.90;;;;;;5024807;28;20042;-30
2021/12/14 03:05:15;;;;;;;30.90;23.40;;;8.20;99.90;;;;;;5018932;28;20140;-30
2021/12/14 03:08:08;;;;;;;35.87;22.83;;;8.10;99.90;;;;;;5012433;28;20049;-31
2021/12/14 03:10:52;;;;;;;34.40;24.47;;;8.20;99.90;;;;;;5027726;28;20049;-31
2021/12/14 03:13:19;;;;;;;32.50;23.80;;;8.10;99.90;;;;;;5027625;28;20561;-31
2021/12/14 03:15:52;;;;;;;36.43;25.30;;;8.10;99.90;;;;;;5012364;28;20049;-31
2021/12/14 03:18:29;;;;;;;36.07;24.20;;;8.10;99.90;;;;;;4992036;28;20093;-30
2021/12/14 03:21:17;;;;;;;34.53;24.97;;;8.20;99.90;;;;;;5008187;28;20061;-31
2021/12/14 03:23:48;;;;;;;33.83;24.63;;;8.20;99.90;;;;;;5018025;28;20323;-31
2021/12/14 03:26:16;;;;;;;34.55;25.33;;;8.20;99.90;;;;;;5018418;28;20052;-31
2021/12/14 03:28:45;;;;;;;33.37;25.43;;;8.00;99.90;;;;;;5022547;28;20046;-31
2021/12/14 03:31:11;;;;;;;36.07;25.40;;;8.10;99.90;;;;;;5027661;28;20111;-31
2021/12/14 03:33:58;;;;;;;35.87;25.97;;;8.20;99.90;;;;;;5027423;28;20050;-30
2021/12/14 03:36:47;;;;;;;38.00;26.23;;;8.10;99.90;;;;;;5014665;28;20056;-30
2021/12/14 03:39:22;;;;;;;35.80;25.47;;;8.10;99.90;;;;;;5022399;28;20304;-31
2021/12/14 03:41:55;;;;;;;37.03;25.97;;;8.10;99.90;;;;;;5027484;28;20053;-30
2021/12/14 03:44:31;;;;;;;35.20;25.50;;;8.10;99.90;;;;;;5009514;28;20038;-31
2021/12/14 03:47:05;;;;;;;33.63;25.03;;;8.10;99.90;;;;;;5012646;28;20049;-30
2021/12/14 03:49:39;;;;;;;38.07;26.13;;;8.10;99.90;;;;;;5025662;28;20044;-30
2021/12/14 03:52:13;;;;;;;36.40;26.10;;;8.20;99.90;;;;;;5026676;28;20115;-31
2021/12/14 03:54:39;;;;;;;37.07;26.47;;;8.10;99.90;;;;;;5026833;28;20053;-30
2021/12/14 03:57:05;;;;;;;39.60;27.20;;;8.10;99.90;;;;;;5011769;28;20053;-31
2021/12/14 03:59:32;;;;;;;39.13;27.00;;;8.10;99.90;;;;;;5027690;28;20415;-30
2021/12/14 04:02:01;;;;;;;40.20;27.50;;;8.10;99.90;;;;;;5027576;28;20049;-30
2021/12/14 04:04:36;;;;;;;38.87;26.73;;;8.10;99.90;;;;;;5026900;28;20061;-31
2021/12/14 04:07:07;;;;;;;40.30;27.43;;;8.10;99.90;;;;;;5013861;28;20115;-30
2021/12/14 04:09:36;;;;;;;40.00;28.08;;;8.20;99.90;;;;;;5030605;28;20128;-31
2021/12/14 04:12:04;;;;;;;37.43;28.37;;;8.30;99.90;;;;;;5031766;28;20049;-31
2021/12/14 04:14:31;;;;;;;42.27;28.47;;;8.10;99.90;;;;;;5024045;28;20519;-30
2021/12/14 04:16:59;;;;;;;38.90;27.97;;;8.20;99.90;;;;;;4995313;28;20048;-30
2021/12/14 04:19:28;;;;;;;39.37;27.87;;;8.20;99.90;;;;;;5009951;28;20132;-30
2021/12/14 04:22:02;;;;;;;41.87;28.63;;;8.20;99.90;;;;;;5011827;28;20081;-31
2021/12/14 04:24:33;;;;;;;39.87;28.43;;;8.20;99.90;;;;;;5027769;28;20049;-30
2021/12/14 04:27:02;;;;;;;41.28;28.13;;;8.20;99.90;;;;;;5015774;28;20258;-30
2021/12/14 04:29:28;;;;;;;42.00;28.73;;;8.20;99.90;;;;;;5030187;28;20045;-31
2021/12/14 04:31:54;;;;;;;43.80;30.10;;;8.20;99.90;;;;;;5029650;28;20568;-31
2021/12/14 04:34:20;;;;;;;46.57;30.67;;;8.20;99.90;;;;;;5030220;28;20049;-31
2021/12/14 04:36:50;;;;;;;41.80;29.27;;;8.20;99.90;;;;;;5014306;28;20056;-30
2021/12/14 04:53:22;;;;;;;47.67;30.50;;;8.10;99.90;;;;;;5028955;28;20052;-30
2021/12/14 04:55:50;;;;;;;46.67;31.80;;;8.10;99.90;;;;;;5029313;28;20072;-30
2021/12/14 04:58:30;;;;;;;44.50;30.17;;;8.20;99.90;;;;;;5014203;28;20548;-31
2021/12/14 05:00:58;;;;;;;49.63;31.93;;;8.10;99.90;;;;;;5030797;28;20049;-31
2021/12/14 05:03:39;;;;;;;45.40;31.20;;;8.10;99.90;;;;;;5028786;28;20132;-30
2021/12/14 05:06:17;;;;;;;44.67;30.77;;;8.10;99.90;;;;;;5028875;28;20061;-30
2021/12/14 05:11:17;;;;;;;44.13;30.83;;;8.10;99.90;;;;;;5028349;28;20103;-30
2021/12/14 05:13:58;;;;;;;42.77;30.27;;;8.10;99.90;;;;;;5029845;28;20407;-30
2021/12/14 05:16:27;;;;;;;48.33;32.08;;;8.10;99.90;;;;;;4998368;28;20409;-30
2021/12/14 05:18:59;;;;;;;50.30;32.00;;;8.10;99.90;;;;;;5005830;28;20131;-31
2021/12/14 05:21:29;;;;;;;46.73;31.30;;;8.10;99.90;;;;;;5017594;28;20053;-31
2021/12/14 05:23:56;;;;;;;50.10;33.03;;;8.10;99.90;;;;;;5023382;28;20425;-30
2021/12/14 05:26:22;;;;;;;48.53;31.13;;;8.10;99.90;;;;;;5017706;28;20073;-31
2021/12/14 05:28:48;;;;;;;49.10;32.10;;;8.10;99.90;;;;;;5026048;28;20052;-30
2021/12/14 05:31:14;;;;;;;52.07;32.00;;;8.10;99.90;;;;;;5030357;28;20041;-30
2021/12/14 05:33:41;;;;;;;51.43;33.77;;;8.00;99.90;;;;;;5026659;28;20535;-31
2021/12/14 05:36:12;;;;;;;52.47;32.70;;;8.00;99.90;;;;;;5022647;28;20124;-31
2021/12/14 05:44:02;;;;;;;51.30;32.63;;;8.00;99.90;;;;;;5025701;28;20118;-31
2021/12/14 05:46:28;;;;;;;48.03;32.30;;;8.00;99.90;;;;;;5017513;28;20524;-31
2021/12/14 05:49:05;;;;;;;53.00;33.43;;;8.00;99.90;;;;;;5007696;28;20049;-30
2021/12/14 05:51:32;;;;;;;49.03;32.80;;;8.00;99.90;;;;;;5029633;28;20042;-31
2021/12/14 05:53:59;;;;;;;46.27;32.47;;;8.00;99.90;;;;;;5027555;28;20408;-31
2021/12/14 05:56:27;;;;;;;49.80;32.87;;;8.00;99.90;;;;;;5017452;28;20050;-30
2021/12/14 05:58:54;;;;;;;47.77;31.67;;;8.10;99.90;;;;;;5025620;28;20042;-31
2021/12/14 06:01:24;;;;;;;50.77;32.77;;;8.00;99.90;;;;;;5029737;28;20053;-31
2021/12/14 06:04:00;;;;;;;50.20;32.83;;;8.00;99.90;;;;;;5028742;28;20037;-30
2021/12/14 06:06:31;;;;;;;44.47;31.53;;;8.00;99.90;;;;;;5015841;28;20486;-30
2021/12/14 06:09:15;;;;;;;53.63;32.30;;;8.10;99.90;;;;;;5027137;28;20054;-31
2021/12/14 06:11:44;;;;;;;52.33;33.23;;;8.10;99.90;;;;;;5029491;28;20056;-30
2021/12/14 06:14:17;;;;;;;49.57;32.87;;;8.00;99.90;;;;;;5026031;28;20521;-30
2021/12/14 06:16:44;;;;;;;50.50;32.63;;;8.20;99.90;;;;;;4994164;28;20050;-30
2021/12/14 06:19:29;;;;;;;51.13;33.70;;;8.10;99.90;;;;;;5008418;28;20072;-30
2021/12/14 06:21:56;;;;;;;48.87;32.93;;;8.10;99.90;;;;;;5024103;28;20061;-30
2021/12/14 06:24:27;;;;;;;47.57;33.37;;;8.20;99.90;;;;;;5028193;28;20400;-30
2021/12/14 06:26:54;;;;;;;52.47;34.25;;;8.10;99.90;;;;;;5013387;28;20043;-31
2021/12/14 06:29:23;;;;;;;47.27;32.23;;;8.10;99.90;;;;;;5028178;28;20037;-31
2021/12/14 06:31:51;;;;;;;49.27;33.43;;;8.10;99.90;;;;;;5028697;28;20496;-31
2021/12/14 06:34:28;;;;;;;55.37;35.10;;;8.20;99.90;;;;;;5028700;28;20052;-30
2021/12/14 06:37:22;;;;;;;51.27;36.07;;;8.20;99.90;;;;;;5011187;28;20456;-31
2021/12/14 06:40:16;;;;;;;53.87;35.40;;;8.20;99.90;;;;;;5008955;28;20057;-31
2021/12/14 06:43:01;;;;;;;56.17;37.03;;;8.20;99.90;;;;;;5006794;28;20052;-31
2021/12/14 06:45:55;;;;;;;50.43;34.93;;;8.20;99.90;;;;;;5009202;28;20074;-32
2021/12/14 06:48:41;;;;;;;51.33;34.57;;;8.20;99.90;;;;;;4991176;28;20050;-30
2021/12/14 06:51:18;;;;;;;52.23;35.83;;;8.20;99.90;;;;;;5007471;28;20054;-31
2021/12/14 06:53:49;;;;;;;56.90;35.43;;;8.20;99.90;;;;;;5007801;28;20080;-30
2021/12/14 06:56:16;;;;;;;42.15;26.63;;;8.20;99.90;;;;;;5000132;28;20371;-31
2021/12/14 06:58:56;;;;;;;60.37;35.23;;;8.20;99.90;;;;;;5020501;28;20052;-30
2021/12/14 07:01:29;;;;;;;60.17;36.70;;;8.20;99.90;;;;;;5028514;28;20046;-30
2021/12/14 07:04:04;;;;;;;54.13;36.87;;;8.20;99.90;;;;;;5027466;28;20041;-30
2021/12/14 07:06:37;;;;;;;58.37;36.60;;;8.20;99.90;;;;;;5015557;28;20084;-31
2021/12/14 07:09:11;;;;;;;61.97;38.23;;;8.20;99.90;;;;;;5024530;28;20067;-30
2021/12/14 07:11:40;;;;;;;57.17;37.83;;;8.10;99.90;;;;;;5028470;28;20116;-30
2021/12/14 07:14:29;;;;;;;56.00;37.60;;;8.20;99.90;;;;;;5025319;28;20144;-30
2021/12/14 07:16:56;;;;;;;54.40;35.47;;;8.20;99.90;;;;;;4993245;28;20072;-30
2021/12/14 07:19:53;;;;;;;61.70;38.03;;;8.10;99.90;;;;;;5007254;28;20049;-30
2021/12/14 07:22:26;;;;;;;55.77;36.23;;;8.10;99.90;;;;;;5007465;28;20134;-30
2021/12/14 07:25:12;;;;;;;61.80;37.93;;;8.20;99.90;;;;;;5028059;28;20053;-31
2021/12/14 07:27:40;;;;;;;62.10;37.30;;;8.20;99.90;;;;;;5011956;28;20482;-31
2021/12/14 07:30:14;;;;;;;67.87;38.43;;;8.20;99.90;;;;;;5027077;28;20056;-30
2021/12/14 07:33:10;;;;;;;64.30;38.70;;;8.20;99.90;;;;;;5025883;28;20080;-30
2021/12/14 07:36:04;;;;;;;62.23;38.27;;;8.20;99.90;;;;;;5025633;28;20135;-30
2021/12/14 07:38:47;;;;;;;65.13;38.93;;;8.20;99.90;;;;;;4996450;28;20073;-30
2021/12/14 07:41:22;;;;;;;67.27;39.40;;;8.10;99.90;;;;;;5006566;28;20060;-30
2021/12/14 07:44:05;;;;;;;65.00;39.20;;;8.10;99.90;;;;;;5007868;28;20074;-30
2021/12/14 07:46:39;;;;;;;64.50;38.80;;;8.20;99.90;;;;;;5014724;28;20609;-31
2021/12/14 07:49:10;;;;;;;65.10;39.50;;;8.20;99.90;;;;;;5023357;28;20057;-30
2021/12/14 07:51:38;;;;;;;65.22;40.40;;;8.20;99.90;;;;;;5024460;28;20045;-30
2021/12/14 07:54:20;;;;;;;66.93;40.80;;;8.20;99.90;;;;;;5025813;28;20115;-30
2021/12/14 07:57:10;;;;;;;69.73;39.10;;;8.20;99.90;;;;;;4997882;28;20050;-30
2021/12/14 07:59:52;;;;;;;67.77;41.20;;;8.20;99.90;;;;;;5003064;28;20083;-30
2021/12/14 08:02:30;;;;;;;;;;;8.20;99.90;;;;;;5027113;28;20030;-31
2021/12/14 08:05:19;;;;;;;69.17;38.63;;;8.20;99.90;;;;;;5025779;28;19925;-30
2021/12/14 08:07:56;;;;;;;74.37;41.43;;;8.20;99.90;;;;;;5009730;28;20393;-31
2021/12/14 08:10:27;;;;;;;65.87;39.83;;;8.20;99.90;;;;;;5024274;28;20060;-30
2021/12/14 08:12:58;;;;;;;53.53;31.10;;;8.20;99.90;;;;;;5015597;28;20096;-30
2021/12/14 08:15:38;;;;;;;68.88;41.35;;;8.20;99.90;;;;;;5014975;28;20614;-31
2021/12/14 08:18:17;;;;;;;73.20;41.07;;;8.20;99.90;;;;;;5002672;28;20141;-30
2021/12/14 08:20:57;;;;;;;74.17;40.87;;;8.20;99.90;;;;;;5025761;28;20137;-30
2021/12/14 08:23:38;;;;;;;69.07;41.00;;;8.20;99.90;;;;;;5020636;28;20037;-30
2021/12/14 08:26:14;;;;;;;69.90;43.30;;;8.20;99.90;;;;;;5024046;28;20080;-31
2021/12/14 08:28:54;;;;;;;70.60;42.70;;;8.20;99.90;;;;;;5018940;28;20041;-31
2021/12/14 08:31:23;;;;;;;70.00;40.50;;;8.20;99.90;;;;;;5024850;28;20517;-30
2021/12/14 08:34:10;;;;;;;69.23;41.63;;;8.20;99.90;;;;;;5025190;28;20436;-30
2021/12/14 08:36:40;;;;;;;72.27;41.70;;;8.30;99.90;;;;;;5002306;28;20555;-31
2021/12/14 08:39:13;;;;;;;74.00;40.77;;;8.30;99.90;;;;;;5020946;28;20076;-30
2021/12/14 08:41:47;;;;;;;72.70;41.93;;;8.30;99.90;;;;;;5025779;28;20037;-30
2021/12/14 08:44:20;;;;;;;71.90;41.77;;;8.20;99.90;;;;;;5025159;28;20045;-30
2021/12/14 08:46:49;;;;;;;73.07;41.93;;;8.30;99.90;;;;;;5006540;28;20083;-30
2021/12/14 08:49:16;;;;;;;78.03;41.67;;;8.30;99.90;;;;;;5024996;28;20516;-31
2021/12/14 08:51:44;;;;;;;76.20;43.17;;;8.30;99.90;;;;;;5025430;28;20496;-30
2021/12/14 08:54:18;;;;;;;74.07;42.87;;;8.20;99.90;;;;;;5026193;28;20080;-30
2021/12/14 08:56:51;;;;;;;77.83;43.17;;;8.30;99.90;;;;;;5013962;28;20393;-31
2021/12/14 08:59:17;;;;;;;75.83;42.97;;;8.30;99.90;;;;;;5026809;28;20049;-30
2021/12/14 09:01:44;;;;;;;76.80;42.63;;;8.30;99.90;;;;;;5016268;28;20053;-31
2021/12/14 09:04:15;;;;;;;75.03;42.60;;;8.30;99.90;;;;;;5028155;28;20136;-31
2021/12/14 09:06:44;;;;;;;69.93;42.22;;;8.30;99.90;;;;;;5013576;28;20081;-30
2021/12/14 09:09:13;;;;;;;75.63;43.20;;;8.30;99.90;;;;;;5024226;28;20509;-31
2021/12/14 09:11:42;;;;;;;71.40;41.10;;;8.30;99.90;;;;;;5028731;28;20041;-30
2021/12/14 09:14:13;;;;;;;70.60;40.87;;;8.30;99.90;;;;;;5027702;28;20053;-31
2021/12/14 09:16:41;;;;;;;72.82;43.20;;;8.30;99.90;;;;;;5013982;28;20100;-31
2021/12/14 09:19:15;;;;;;;72.10;41.63;;;8.30;99.90;;;;;;5025976;28;20045;-30
2021/12/14 09:21:46;;;;;;;67.73;40.90;;;8.30;99.90;;;;;;5028992;28;20428;-30
2021/12/14 09:24:18;;;;;;;56.33;32.57;;;8.40;99.90;;;;;;5012244;28;20050;-31
2021/12/14 09:26:50;;;;;;;72.07;42.53;;;8.30;99.90;;;;;;5010113;28;20311;-31
2021/12/14 09:29:20;;;;;;;77.03;42.10;;;8.30;99.90;;;;;;5027459;28;20455;-30
2021/12/14 09:31:49;;;;;;;70.17;40.60;;;8.40;99.90;;;;;;5028647;28;20595;-30
2021/12/14 09:34:18;;;;;;;77.80;42.20;;;8.40;99.90;;;;;;5027758;28;20337;-30
2021/12/14 09:36:48;;;;;;;72.80;42.33;;;8.40;99.90;;;;;;5013731;28;20065;-31
2021/12/14 09:39:19;;;;;;;77.03;42.50;;;8.40;99.90;;;;;;5010166;28;21180;-31
2021/12/14 09:41:50;;;;;;;80.37;41.67;;;8.40;99.90;;;;;;5019239;28;20038;-30
2021/12/14 09:44:20;;;;;;;59.42;31.38;;;8.30;99.90;;;;;;5025424;28;20471;-30
2021/12/14 09:46:46;;;;;;;72.03;40.47;;;8.50;99.90;;;;;;5009775;28;20056;-30
2021/12/14 09:49:13;;;;;;;72.70;41.70;;;8.50;99.90;;;;;;5010523;28;20508;-31
2021/12/14 09:51:47;;;;;;;73.47;41.10;;;8.50;99.90;;;;;;5021025;28;20038;-30
2021/12/14 09:54:17;;;;;;;76.50;42.00;;;8.50;99.90;;;;;;5027292;28;20041;-31
2021/12/14 09:56:52;;;;;;;75.17;41.10;;;8.50;99.90;;;;;;5014301;28;20056;-30
2021/12/14 09:59:19;;;;;;;78.47;43.63;;;8.50;99.90;;;;;;5007729;28;20041;-31
2021/12/14 10:01:53;;;;;;;72.10;41.33;;;8.50;99.90;;;;;;5025188;28;20448;-31
2021/12/14 10:04:32;;;;;;;79.13;42.20;;;8.50;99.90;;;;;;5024078;28;20045;-31
2021/12/14 10:07:02;;;;;;;78.20;40.93;;;8.50;99.90;;;;;;5013158;28;20408;-31
2021/12/14 10:09:31;;;;;;;75.53;40.83;;;8.50;99.90;;;;;;5024892;28;20141;-30
2021/12/14 10:14:57;;;;;;;78.33;41.57;;;8.60;99.90;;;;;;5024090;28;20041;-31
2021/12/14 10:17:26;;;;;;;72.40;41.10;;;8.60;99.90;;;;;;5011187;28;20049;-31
2021/12/14 10:19:53;;;;;;;67.57;40.07;;;8.60;99.90;;;;;;5027381;28;20547;-30
2021/12/14 10:22:25;;;;;;;75.73;42.67;;;8.60;99.90;;;;;;5026044;28;20061;-31
2021/12/14 10:24:51;;;;;;;;;;;8.60;99.90;;;;;;5024276;28;20358;-30
2021/12/14 10:27:19;;;;;;;77.73;40.63;;;8.60;99.90;;;;;;5011660;28;19925;-31
2021/12/14 10:29:45;;;;;;;71.37;40.57;;;8.50;99.90;;;;;;5027375;28;20045;-31
2021/12/14 10:32:16;;;;;;;64.93;37.67;;;8.50;99.90;;;;;;5024526;28;20397;-30
2021/12/14 10:34:47;;;;;;;66.07;38.40;;;8.50;99.90;;;;;;5022474;28;20049;-30
2021/12/14 10:37:21;;;;;;;;;;;8.50;99.90;;;;;;5009937;28;20666;-31
2021/12/14 10:42:38;;;;;;;73.20;38.80;;;8.60;99.90;;;;;;5016443;28;19921;-30
2021/12/14 10:45:17;;;;;;;73.43;39.13;;;8.60;99.90;;;;;;5026403;28;20045;-30
2021/12/14 10:47:43;;;;;;;72.37;37.67;;;8.60;99.90;;;;;;5009283;28;20128;-31
2021/12/14 10:50:14;;;;;;;73.50;39.23;;;8.60;99.90;;;;;;5026553;28;20187;-31
2021/12/14 10:52:43;;;;;;;71.57;39.63;;;8.60;99.90;;;;;;5026202;28;20745;-30
2021/12/14 10:55:24;;;;;;;76.70;39.33;;;8.60;99.90;;;;;;5025838;28;20158;-30
2021/12/14 10:57:50;;;;;;;76.50;39.28;;;8.60;99.90;;;;;;5010469;28;20061;-31
2021/12/14 11:00:33;;;;;;;81.13;40.97;;;8.60;99.90;;;;;;5024782;28;20107;-30
2021/12/14 11:03:08;;;;;;;75.70;39.47;;;8.70;99.90;;;;;;5026025;28;20045;-30
2021/12/14 11:05:36;;;;;;;76.87;38.57;;;8.70;99.90;;;;;;5026215;28;20052;-30
2021/12/14 11:08:04;;;;;;;78.00;38.67;;;8.70;99.90;;;;;;5009920;28;20274;-30
2021/12/14 11:10:34;;;;;;;74.97;39.03;;;8.70;99.90;;;;;;5026020;28;20045;-30
2021/12/14 11:13:06;;;;;;;73.80;36.87;;;8.70;99.90;;;;;;5025221;28;20064;-30
2021/12/14 11:15:43;;;;;;;67.13;37.70;;;8.70;99.90;;;;;;4992243;28;20061;-30
2021/12/14 11:18:14;;;;;;;67.47;36.50;;;8.70;99.90;;;;;;4995474;28;20129;-30
2021/12/14 11:20:59;;;;;;;67.47;35.67;;;8.70;99.90;;;;;;5015686;28;20053;-31
2021/12/14 11:23:26;;;;;;;62.20;35.93;;;8.80;99.90;;;;;;5017265;28;20038;-30
2021/12/14 11:25:54;;;;;;;58.47;33.80;;;8.80;99.90;;;;;;5014664;28;20127;-30
2021/12/14 11:28:39;;;;;;;60.53;32.90;;;8.80;99.90;;;;;;4996824;28;20397;-31
2021/12/14 11:31:25;;;;;;;57.57;32.27;;;8.80;99.90;;;;;;5014242;28;20050;-31
2021/12/14 11:33:53;;;;;;;55.47;32.37;;;8.80;99.90;;;;;;5016257;28;20089;-31
2021/12/14 11:36:24;;;;;;;53.93;31.30;;;8.80;99.90;;;;;;5003677;28;22264;-31
2021/12/14 11:38:59;;;;;;;51.67;29.23;;;8.90;99.90;;;;;;5006281;28;20055;-30
2021/12/14 11:41:41;;;;;;;53.17;29.27;;;8.80;99.90;;;;;;5019986;28;20038;-31
2021/12/14 11:44:12;;;;;;;46.23;25.50;;;8.80;99.90;;;;;;5011242;28;20081;-30
2021/12/14 11:47:00;;;;;;;46.45;27.17;;;8.80;99.90;;;;;;5003218;28;20121;-31
2021/12/14 11:49:39;;;;;;;42.23;24.80;;;8.90;99.90;;;;;;5015452;28;20485;-31
2021/12/14 11:52:05;;;;;;;45.43;25.97;;;8.90;99.90;;;;;;5010992;28;20437;-31
2021/12/14 11:54:44;;;;;;;48.37;26.37;;;8.90;99.90;;;;;;5020762;28;20156;-31
2021/12/14 11:57:11;;;;;;;43.93;25.17;;;8.90;99.90;;;;;;5005716;28;20038;-31
2021/12/14 11:59:37;;;;;;;43.60;24.00;;;8.90;99.90;;;;;;5013776;28;20416;-31
2021/12/14 12:02:05;;;;;;;43.40;24.20;;;8.90;99.90;;;;;;5016890;28;20183;-34
2021/12/14 12:04:36;;;;;;;41.03;23.77;;;8.90;99.90;;;;;;5024870;28;20046;-31
2021/12/14 12:09:56;;;;;;;36.03;21.33;;;9.00;99.90;;;;;;5020488;28;20045;-30
2021/12/14 12:12:32;;;;;;;36.17;21.63;;;9.00;99.90;;;;;;5021732;28;20038;-31
2021/12/14 12:14:57;;;;;;;32.70;19.80;;;9.00;99.90;;;;;;5017880;28;20132;-31
2021/12/14 12:17:26;;;;;;;35.90;20.30;;;9.00;99.90;;;;;;5005236;28;20047;-32
2021/12/14 12:19:57;;;;;;;35.93;21.20;;;9.00;99.90;;;;;;5003947;28;20064;-30
2021/12/14 12:22:25;;;;;;;31.13;18.58;;;9.00;99.90;;;;;;5019771;28;20061;-30
2021/12/14 12:24:55;;;;;;;30.57;18.30;;;9.00;99.90;;;;;;5018367;28;20050;-31
2021/12/14 12:27:21;;;;;;;29.20;17.50;;;9.00;99.90;;;;;;5000921;28;20085;-31
2021/12/14 12:29:47;;;;;;;28.57;16.87;;;9.00;99.90;;;;;;5018950;28;20126;-30
2021/12/14 12:32:23;;;;;;;24.83;16.17;;;9.00;99.90;;;;;;5021455;28;20069;-31
2021/12/14 12:34:50;;;;;;;24.07;15.53;;;9.00;99.90;;;;;;5018429;28;20112;-30
2021/12/14 12:37:32;;;;;;;24.43;15.47;;;9.00;99.90;;;;;;5001179;28;20578;-31
2021/12/14 12:39:58;;;;;;;25.20;15.50;;;9.00;99.90;;;;;;5021288;28;20436;-30
2021/12/14 12:42:23;;;;;;;25.50;16.33;;;9.10;99.90;;;;;;5016416;28;20120;-31
2021/12/14 12:44:49;;;;;;;26.60;16.17;;;9.00;99.90;;;;;;5021313;28;20570;-30
2021/12/14 12:47:21;;;;;;;24.00;15.70;;;8.90;99.90;;;;;;5001533;28;20095;-31
2021/12/14 12:49:53;;;;;;;25.73;16.67;;;9.00;99.90;;;;;;5022288;28;20081;-31
2021/12/14 12:52:30;;;;;;;26.77;16.07;;;9.10;99.90;;;;;;5016120;28;20052;-31
2021/12/14 12:55:11;;;;;;;27.13;16.03;;;9.10;99.90;;;;;;5021410;28;20053;-31
2021/12/14 12:57:54;;;;;;;;;;;9.10;99.90;;;;;;5001346;28;20125;-31
2021/12/14 13:00:40;;;;;;;24.67;16.20;;;9.10;99.90;;;;;;5016100;28;20010;-31
2021/12/14 13:03:13;;;;;;;26.17;16.47;;;9.10;99.90;;;;;;5016754;28;20053;-31
2021/12/14 13:05:49;;;;;;;23.50;15.33;;;9.10;99.90;;;;;;5024050;28;20068;-30
2021/12/14 13:08:20;;;;;;;27.17;16.97;;;9.20;99.90;;;;;;5000655;28;20049;-30
2021/12/14 13:11:04;;;;;;;26.05;16.52;;;9.10;99.90;;;;;;5016644;28;20758;-31
2021/12/14 13:13:36;;;;;;;26.53;15.90;;;9.20;99.90;;;;;;5019380;28;20072;-31
2021/12/14 13:16:07;;;;;;;25.77;17.17;;;9.20;99.90;;;;;;5022774;28;20519;-30
2021/12/14 13:18:35;;;;;;;25.73;15.48;;;9.20;99.90;;;;;;5006590;28;20046;-31
2021/12/14 13:21:28;;;;;;;24.67;16.03;;;9.20;99.90;;;;;;5015776;28;20080;-30
2021/12/14 13:24:22;;;;;;;25.90;15.37;;;9.20;99.90;;;;;;5014609;28;20060;-31
2021/12/14 13:26:53;;;;;;;21.90;13.80;;;9.20;99.90;;;;;;5002552;28;20057;-31
2021/12/14 13:29:25;;;;;;;23.70;14.83;;;9.30;99.90;;;;;;5017052;28;20041;-31
2021/12/14 13:31:58;;;;;;;24.65;14.55;;;9.20;99.90;;;;;;5017306;28;20081;-30
2021/12/14 13:34:27;;;;;;;23.43;14.80;;;9.20;99.90;;;;;;5015592;28;20037;-31
2021/12/14 13:36:54;;;;;;;27.40;15.73;;;9.20;99.90;;;;;;4999222;28;20115;-30
2021/12/14 13:39:21;;;;;;;25.03;15.23;;;9.20;99.90;;;;;;5018302;28;20305;-31
2021/12/14 13:42:03;;;;;;;26.37;15.27;;;9.20;99.90;;;;;;5020010;28;20053;-30
2021/12/14 13:44:32;;;;;;;25.57;15.83;;;9.20;99.90;;;;;;5012758;28;20038;-31
2021/12/14 13:47:02;;;;;;;26.43;15.50;;;9.20;99.90;;;;;;4998222;28;20049;-30